sensor_id;sensor_type;location;lat;lon;timestamp;temperature;humidity
23671;DHT22;12012;51.998;7.614;2023-07-22T00:01:49;14.00;3.00
23671;DHT22;12012;51.998;7.614;2023-07-22T00:04:15;14.00;6.10
23671;DHT22;12012;51.998;7.614;2023-07-22T00:06:40;13.90;62.20
23671;DHT22;12012;51.998;7.614;2023-07-22T00:09:06;13.90;99.90
23671;DHT22;12012;51.998;7.614;2023-07-22T00:11:32;13.90;99.90
23671;DHT22;12012;51.998;7.614;2023-07-22T00:13:57;13.90;99.90
23671;DHT22;12012;51.998;7.614;2023-07-22T00:16:24;13.80;99.90
23671;DHT22;12012;51.998;7.614;2023-07-22T00:18:49;13.80;99.90
23671;DHT22;12012;51.998;7.614;2023-07-22T00:21:15;13.80;99.90
23671;DHT22;12012;51.998;7.614;2023-07-22T00:23:40;13.70;99.90
23671;DHT22;12012;51.998;7.614;2023-07-22T00:26:07;13.70;1.00
23671;DHT22;12012;51.998;7.614;2023-07-22T00:28:32;13.70;1.00
23671;DHT22;12012;51.998;7.614;2023-07-22T00:30:58;13.70;99.90
23671;DHT22;12012;51.998;7.614;2023-07-22T00:33:23;13.70;8.90
23671;DHT22;12012;51.998;7.614;2023-07-22T00:35:49;13.70;2.00
23671;DHT22;12012;51.998;7.614;2023-07-22T00:38:16;13.70;99.90
23671;DHT22;12012;51.998;7.614;2023-07-22T00:40:41;13.70;1.00
23671;DHT22;12012;51.998;7.614;2023-07-22T00:43:07;13.70;43.90
23671;DHT22;12012;51.998;7.614;2023-07-22T00:45:32;13.70;37.40
23671;DHT22;12012;51.998;7.614;2023-07-22T00:47:58;13.60;24.50
23671;DHT22;12012;51.998;7.614;2023-07-22T00:50:24;13.60;99.90
23671;DHT22;12012;51.998;7.614;2023-07-22T00:52:51;13.60;99.90
23671;DHT22;12012;51.998;7.614;2023-07-22T00:55:17;13.60;99.90
23671;DHT22;12012;51.998;7.614;2023-07-22T00:57:42;13.60;95.80
23671;DHT22;12012;51.998;7.614;2023-07-22T01:00:08;13.60;99.90
23671;DHT22;12012;51.998;7.614;2023-07-22T01:02:40;13.60;99.90
23671;DHT22;12012;51.998;7.614;2023-07-22T01:05:06;13.60;99.90
23671;DHT22;12012;51.998;7.614;2023-07-22T01:07:32;13.70;94.70
23671;DHT22;12012;51.998;7.614;2023-07-22T01:09:58;13.70;3.10
23671;DHT22;12012;51.998;7.614;2023-07-22T01:12:24;13.70;99.90
23671;DHT22;12012;51.998;7.614;2023-07-22T01:14:50;13.70;55.60
23671;DHT22;12012;51.998;7.614;2023-07-22T01:17:16;13.70;99.90
23671;DHT22;12012;51.998;7.614;2023-07-22T01:19:41;13.70;1.00
23671;DHT22;12012;51.998;7.614;2023-07-22T01:22:08;13.70;99.90
23671;DHT22;12012;51.998;7.614;2023-07-22T01:24:35;13.70;1.00
23671;DHT22;12012;51.998;7.614;2023-07-22T01:27:01;13.70;1.00
23671;DHT22;12012;51.998;7.614;2023-07-22T01:29:29;13.70;99.90
23671;DHT22;12012;51.998;7.614;2023-07-22T01:31:55;13.70;99.90
23671;DHT22;12012;51.998;7.614;2023-07-22T01:34:21;13.70;89.60
23671;DHT22;12012;51.998;7.614;2023-07-22T01:36:48;13.60;6.60
23671;DHT22;12012;51.998;7.614;2023-07-22T01:39:14;13.60;1.00
23671;DHT22;12012;51.998;7.614;2023-07-22T01:41:41;13.60;1.00
23671;DHT22;12012;51.998;7.614;2023-07-22T01:44:06;13.60;1.00
23671;DHT22;12012;51.998;7.614;2023-07-22T01:46:33;13.60;1.00
23671;DHT22;12012;51.998;7.614;2023-07-22T01:48:59;13.70;1.00
23671;DHT22;12012;51.998;7.614;2023-07-22T01:51:25;13.70;1.00
23671;DHT22;12012;51.998;7.614;2023-07-22T01:53:51;13.70;1.00
23671;DHT22;12012;51.998;7.614;2023-07-22T01:56:16;13.60;1.00
23671;DHT22;12012;51.998;7.614;2023-07-22T01:58:42;13.60;1.00
23671;DHT22;12012;51.998;7.614;2023-07-22T02:01:08;13.60;99.90
23671;DHT22;12012;51.998;7.614;2023-07-22T02:03:34;13.60;1.00
23671;DHT22;12012;51.998;7.614;2023-07-22T02:06:03;13.60;99.90
23671;DHT22;12012;51.998;7.614;2023-07-22T02:08:29;13.60;1.00
23671;DHT22;12012;51.998;7.614;2023-07-22T02:10:59;13.60;6.50
23671;DHT22;12012;51.998;7.614;2023-07-22T02:13:25;13.60;1.00
23671;DHT22;12012;51.998;7.614;2023-07-22T02:15:51;13.60;1.00
23671;DHT22;12012;51.998;7.614;2023-07-22T02:18:17;13.60;1.00
23671;DHT22;12012;51.998;7.614;2023-07-22T02:20:43;13.60;99.90
23671;DHT22;12012;51.998;7.614;2023-07-22T02:23:08;13.60;31.90
23671;DHT22;12012;51.998;7.614;2023-07-22T02:25:35;13.50;1.00
23671;DHT22;12012;51.998;7.614;2023-07-22T02:28:01;13.50;99.90
23671;DHT22;12012;51.998;7.614;2023-07-22T02:30:27;13.50;2.00
23671;DHT22;12012;51.998;7.614;2023-07-22T02:32:52;13.50;99.90
23671;DHT22;12012;51.998;7.614;2023-07-22T02:35:18;13.50;1.00
23671;DHT22;12012;51.998;7.614;2023-07-22T02:37:43;13.50;21.00
23671;DHT22;12012;51.998;7.614;2023-07-22T02:40:09;13.50;65.40
23671;DHT22;12012;51.998;7.614;2023-07-22T02:42:41;13.50;12.80
23671;DHT22;12012;51.998;7.614;2023-07-22T02:45:07;13.50;1.00
23671;DHT22;12012;51.998;7.614;2023-07-22T02:47:33;13.50;1.00
23671;DHT22;12012;51.998;7.614;2023-07-22T02:50:02;13.50;1.00
23671;DHT22;12012;51.998;7.614;2023-07-22T02:52:30;13.50;1.00
23671;DHT22;12012;51.998;7.614;2023-07-22T02:57:30;13.50;1.00
23671;DHT22;12012;51.998;7.614;2023-07-22T02:59:56;13.50;1.00
23671;DHT22;12012;51.998;7.614;2023-07-22T03:02:22;13.50;1.00
23671;DHT22;12012;51.998;7.614;2023-07-22T03:04:47;13.50;1.00
23671;DHT22;12012;51.998;7.614;2023-07-22T03:07:13;13.50;1.00
23671;DHT22;12012;51.998;7.614;2023-07-22T03:09:38;13.50;1.00
23671;DHT22;12012;51.998;7.614;2023-07-22T03:12:04;13.50;99.90
23671;DHT22;12012;51.998;7.614;2023-07-22T03:14:30;13.50;35.00
23671;DHT22;12012;51.998;7.614;2023-07-22T03:17:02;13.50;1.00
23671;DHT22;12012;51.998;7.614;2023-07-22T03:19:29;13.50;1.00
23671;DHT22;12012;51.998;7.614;2023-07-22T03:21:54;13.50;1.00
23671;DHT22;12012;51.998;7.614;2023-07-22T03:24:20;13.50;7.30
23671;DHT22;12012;51.998;7.614;2023-07-22T03:26:46;13.50;1.00
23671;DHT22;12012;51.998;7.614;2023-07-22T03:29:11;13.50;1.00
23671;DHT22;12012;51.998;7.614;2023-07-22T03:31:37;13.50;1.00
23671;DHT22;12012;51.998;7.614;2023-07-22T03:34:03;13.50;1.00
23671;DHT22;12012;51.998;7.614;2023-07-22T03:36:28;13.40;1.00
23671;DHT22;12012;51.998;7.614;2023-07-22T03:38:54;13.40;1.00
23671;DHT22;12012;51.998;7.614;2023-07-22T03:41:20;13.40;1.00
23671;DHT22;12012;51.998;7.614;2023-07-22T03:43:45;13.40;1.00
23671;DHT22;12012;51.998;7.614;2023-07-22T03:46:11;13.40;30.90
23671;DHT22;12012;51.998;7.614;2023-07-22T03:48:36;13.40;8.30
23671;DHT22;12012;51.998;7.614;2023-07-22T03:51:02;13.40;88.70
23671;DHT22;12012;51.998;7.614;2023-07-22T03:53:27;13.40;5.80
23671;DHT22;12012;51.998;7.614;2023-07-22T03:55:53;13.50;99.90
23671;DHT22;12012;51.998;7.614;2023-07-22T03:58:19;13.40;99.90
23671;DHT22;12012;51.998;7.614;2023-07-22T04:00:48;13.50;54.50
23671;DHT22;12012;51.998;7.614;2023-07-22T04:03:14;13.50;99.90
23671;DHT22;12012;51.998;7.614;2023-07-22T04:05:40;13.50;99.90
23671;DHT22;12012;51.998;7.614;2023-07-22T04:08:05;13.50;99.90
23671;DHT22;12012;51.998;7.614;2023-07-22T04:10:31;13.60;58.00
23671;DHT22;12012;51.998;7.614;2023-07-22T04:12:56;13.60;99.90
23671;DHT22;12012;51.998;7.614;2023-07-22T04:15:22;13.70;45.70
23671;DHT22;12012;51.998;7.614;2023-07-22T04:17:48;13.70;99.90
23671;DHT22;12012;51.998;7.614;2023-07-22T04:20:13;13.80;99.90
23671;DHT22;12012;51.998;7.614;2023-07-22T04:22:39;13.80;80.10
23671;DHT22;12012;51.998;7.614;2023-07-22T04:25:05;13.80;99.90
23671;DHT22;12012;51.998;7.614;2023-07-22T04:27:31;13.90;67.10
23671;DHT22;12012;51.998;7.614;2023-07-22T04:29:56;13.90;99.90
23671;DHT22;12012;51.998;7.614;2023-07-22T04:32:22;14.00;99.90
23671;DHT22;12012;51.998;7.614;2023-07-22T04:34:48;14.00;99.90
23671;DHT22;12012;51.998;7.614;2023-07-22T04:37:14;14.10;1.00
23671;DHT22;12012;51.998;7.614;2023-07-22T04:39:39;14.10;1.00
23671;DHT22;12012;51.998;7.614;2023-07-22T04:42:05;14.10;1.00
23671;DHT22;12012;51.998;7.614;2023-07-22T04:44:31;14.10;87.60
23671;DHT22;12012;51.998;7.614;2023-07-22T04:46:56;14.20;1.00
23671;DHT22;12012;51.998;7.614;2023-07-22T04:49:22;14.20;1.00
23671;DHT22;12012;51.998;7.614;2023-07-22T04:51:48;14.20;1.00
23671;DHT22;12012;51.998;7.614;2023-07-22T04:54:14;14.30;99.90
23671;DHT22;12012;51.998;7.614;2023-07-22T04:56:41;14.30;1.00
23671;DHT22;12012;51.998;7.614;2023-07-22T04:59:07;14.30;1.00
23671;DHT22;12012;51.998;7.614;2023-07-22T05:01:33;14.30;99.90
23671;DHT22;12012;51.998;7.614;2023-07-22T05:03:58;14.30;1.00
23671;DHT22;12012;51.998;7.614;2023-07-22T05:06:24;14.30;36.10
23671;DHT22;12012;51.998;7.614;2023-07-22T05:08:51;14.40;99.90
23671;DHT22;12012;51.998;7.614;2023-07-22T05:11:16;14.40;1.00
23671;DHT22;12012;51.998;7.614;2023-07-22T05:13:43;14.40;1.00
23671;DHT22;12012;51.998;7.614;2023-07-22T05:16:09;14.40;1.00
23671;DHT22;12012;51.998;7.614;2023-07-22T05:18:34;14.50;1.00
23671;DHT22;12012;51.998;7.614;2023-07-22T05:21:00;14.50;99.90
23671;DHT22;12012;51.998;7.614;2023-07-22T05:23:25;14.60;1.00
23671;DHT22;12012;51.998;7.614;2023-07-22T05:25:52;14.60;1.00
23671;DHT22;12012;51.998;7.614;2023-07-22T05:28:18;14.70;1.00
23671;DHT22;12012;51.998;7.614;2023-07-22T05:30:44;14.80;1.00
23671;DHT22;12012;51.998;7.614;2023-07-22T05:33:13;14.80;1.00
23671;DHT22;12012;51.998;7.614;2023-07-22T05:35:39;14.90;1.00
23671;DHT22;12012;51.998;7.614;2023-07-22T05:38:04;14.90;99.90
23671;DHT22;12012;51.998;7.614;2023-07-22T05:40:31;14.90;99.90
23671;DHT22;12012;51.998;7.614;2023-07-22T05:42:57;14.90;99.90
23671;DHT22;12012;51.998;7.614;2023-07-22T05:45:22;14.90;99.90
23671;DHT22;12012;51.998;7.614;2023-07-22T05:47:48;15.00;99.90
23671;DHT22;12012;51.998;7.614;2023-07-22T05:50:14;15.00;99.90
23671;DHT22;12012;51.998;7.614;2023-07-22T05:52:39;15.10;99.90
23671;DHT22;12012;51.998;7.614;2023-07-22T05:55:05;15.10;99.90
23671;DHT22;12012;51.998;7.614;2023-07-22T05:57:31;15.20;99.90
23671;DHT22;12012;51.998;7.614;2023-07-22T05:59:57;15.30;99.90
23671;DHT22;12012;51.998;7.614;2023-07-22T06:02:22;15.40;99.90
23671;DHT22;12012;51.998;7.614;2023-07-22T06:04:48;15.50;99.90
23671;DHT22;12012;51.998;7.614;2023-07-22T06:07:13;15.60;99.90
23671;DHT22;12012;51.998;7.614;2023-07-22T06:09:39;15.70;99.90
23671;DHT22;12012;51.998;7.614;2023-07-22T06:12:05;15.90;83.00
23671;DHT22;12012;51.998;7.614;2023-07-22T06:14:31;16.00;16.30
23671;DHT22;12012;51.998;7.614;2023-07-22T06:16:57;16.10;1.00
23671;DHT22;12012;51.998;7.614;2023-07-22T06:19:22;16.20;1.00
23671;DHT22;12012;51.998;7.614;2023-07-22T06:21:51;16.20;1.00
23671;DHT22;12012;51.998;7.614;2023-07-22T06:24:17;16.30;1.00
23671;DHT22;12012;51.998;7.614;2023-07-22T06:26:42;16.30;1.00
23671;DHT22;12012;51.998;7.614;2023-07-22T06:29:08;16.30;1.00
23671;DHT22;12012;51.998;7.614;2023-07-22T06:31:34;16.40;1.00
23671;DHT22;12012;51.998;7.614;2023-07-22T06:33:59;16.50;1.00
23671;DHT22;12012;51.998;7.614;2023-07-22T06:36:26;16.60;1.00
23671;DHT22;12012;51.998;7.614;2023-07-22T06:38:51;16.70;99.90
23671;DHT22;12012;51.998;7.614;2023-07-22T06:41:17;16.70;1.00
23671;DHT22;12012;51.998;7.614;2023-07-22T06:43:44;16.70;99.90
23671;DHT22;12012;51.998;7.614;2023-07-22T06:46:10;16.80;99.90
23671;DHT22;12012;51.998;7.614;2023-07-22T06:48:35;16.90;99.90
23671;DHT22;12012;51.998;7.614;2023-07-22T06:51:01;16.90;99.90
23671;DHT22;12012;51.998;7.614;2023-07-22T06:53:26;17.00;99.90
23671;DHT22;12012;51.998;7.614;2023-07-22T06:55:52;17.00;99.90
23671;DHT22;12012;51.998;7.614;2023-07-22T06:58:19;17.10;99.90
23671;DHT22;12012;51.998;7.614;2023-07-22T07:00:45;17.10;99.90
23671;DHT22;12012;51.998;7.614;2023-07-22T07:03:11;17.20;99.90
23671;DHT22;12012;51.998;7.614;2023-07-22T07:05:37;17.30;99.90
23671;DHT22;12012;51.998;7.614;2023-07-22T07:08:06;17.50;99.90
23671;DHT22;12012;51.998;7.614;2023-07-22T07:10:36;17.60;99.90
23671;DHT22;12012;51.998;7.614;2023-07-22T07:13:02;17.70;99.90
23671;DHT22;12012;51.998;7.614;2023-07-22T07:15:28;17.90;99.90
23671;DHT22;12012;51.998;7.614;2023-07-22T07:17:54;17.90;99.90
23671;DHT22;12012;51.998;7.614;2023-07-22T07:20:20;17.90;99.90
23671;DHT22;12012;51.998;7.614;2023-07-22T07:22:45;18.00;99.90
23671;DHT22;12012;51.998;7.614;2023-07-22T07:25:11;18.00;99.90
23671;DHT22;12012;51.998;7.614;2023-07-22T07:27:37;18.20;99.90
23671;DHT22;12012;51.998;7.614;2023-07-22T07:30:02;18.30;99.90
23671;DHT22;12012;51.998;7.614;2023-07-22T07:32:28;18.40;99.90
23671;DHT22;12012;51.998;7.614;2023-07-22T07:34:59;18.40;99.90
23671;DHT22;12012;51.998;7.614;2023-07-22T07:37:25;18.40;99.90
23671;DHT22;12012;51.998;7.614;2023-07-22T07:39:51;18.40;99.90
23671;DHT22;12012;51.998;7.614;2023-07-22T07:42:23;18.50;99.90
23671;DHT22;12012;51.998;7.614;2023-07-22T07:44:49;18.60;99.90
23671;DHT22;12012;51.998;7.614;2023-07-22T07:47:15;18.70;99.90
23671;DHT22;12012;51.998;7.614;2023-07-22T07:49:40;18.90;99.90
23671;DHT22;12012;51.998;7.614;2023-07-22T07:52:06;19.00;99.90
23671;DHT22;12012;51.998;7.614;2023-07-22T07:54:32;19.10;99.90
23671;DHT22;12012;51.998;7.614;2023-07-22T07:56:57;19.20;99.90
23671;DHT22;12012;51.998;7.614;2023-07-22T07:59:23;19.40;99.90
23671;DHT22;12012;51.998;7.614;2023-07-22T08:01:48;19.60;99.90
23671;DHT22;12012;51.998;7.614;2023-07-22T08:04:14;19.70;99.90
23671;DHT22;12012;51.998;7.614;2023-07-22T08:06:40;20.00;98.40
23671;DHT22;12012;51.998;7.614;2023-07-22T08:09:06;20.30;98.00
23671;DHT22;12012;51.998;7.614;2023-07-22T08:11:31;20.60;67.00
23671;DHT22;12012;51.998;7.614;2023-07-22T08:13:57;20.90;50.80
23671;DHT22;12012;51.998;7.614;2023-07-22T08:16:24;21.10;37.40
23671;DHT22;12012;51.998;7.614;2023-07-22T08:18:50;21.10;29.80
23671;DHT22;12012;51.998;7.614;2023-07-22T08:21:15;21.20;14.90
23671;DHT22;12012;51.998;7.614;2023-07-22T08:23:41;21.40;7.00
23671;DHT22;12012;51.998;7.614;2023-07-22T08:26:11;21.60;1.00
23671;DHT22;12012;51.998;7.614;2023-07-22T08:28:36;21.80;1.00
23671;DHT22;12012;51.998;7.614;2023-07-22T08:31:02;22.00;1.00
23671;DHT22;12012;51.998;7.614;2023-07-22T08:33:28;22.30;1.00
23671;DHT22;12012;51.998;7.614;2023-07-22T08:35:53;22.60;1.00
23671;DHT22;12012;51.998;7.614;2023-07-22T08:38:19;22.80;1.00
23671;DHT22;12012;51.998;7.614;2023-07-22T08:40:48;22.70;1.00
23671;DHT22;12012;51.998;7.614;2023-07-22T08:43:16;22.60;1.00
23671;DHT22;12012;51.998;7.614;2023-07-22T08:45:44;22.60;1.00
23671;DHT22;12012;51.998;7.614;2023-07-22T08:48:12;22.80;1.00
23671;DHT22;12012;51.998;7.614;2023-07-22T08:50:58;22.90;1.00
23671;DHT22;12012;51.998;7.614;2023-07-22T08:53:25;22.90;1.00
23671;DHT22;12012;51.998;7.614;2023-07-22T08:55:51;22.80;1.00
23671;DHT22;12012;51.998;7.614;2023-07-22T08:58:17;22.70;1.00
23671;DHT22;12012;51.998;7.614;2023-07-22T09:00:43;22.60;1.00
23671;DHT22;12012;51.998;7.614;2023-07-22T09:03:09;22.50;1.00
23671;DHT22;12012;51.998;7.614;2023-07-22T09:05:36;22.60;1.00
23671;DHT22;12012;51.998;7.614;2023-07-22T09:08:04;22.70;1.00
23671;DHT22;12012;51.998;7.614;2023-07-22T09:10:32;22.90;1.00
23671;DHT22;12012;51.998;7.614;2023-07-22T09:12:59;23.00;1.00
23671;DHT22;12012;51.998;7.614;2023-07-22T09:15:25;23.20;1.00
23671;DHT22;12012;51.998;7.614;2023-07-22T09:17:51;23.50;1.00
23671;DHT22;12012;51.998;7.614;2023-07-22T09:20:17;23.70;1.00
23671;DHT22;12012;51.998;7.614;2023-07-22T09:22:44;23.70;1.00
23671;DHT22;12012;51.998;7.614;2023-07-22T09:25:21;23.90;1.00
23671;DHT22;12012;51.998;7.614;2023-07-22T09:27:48;23.80;1.00
23671;DHT22;12012;51.998;7.614;2023-07-22T09:30:25;23.70;1.00
23671;DHT22;12012;51.998;7.614;2023-07-22T09:32:52;23.60;1.00
23671;DHT22;12012;51.998;7.614;2023-07-22T09:35:18;23.90;1.00
23671;DHT22;12012;51.998;7.614;2023-07-22T09:37:44;24.30;1.00
23671;DHT22;12012;51.998;7.614;2023-07-22T09:40:17;24.50;1.00
23671;DHT22;12012;51.998;7.614;2023-07-22T09:42:48;24.40;1.00
23671;DHT22;12012;51.998;7.614;2023-07-22T09:45:14;24.20;1.00
23671;DHT22;12012;51.998;7.614;2023-07-22T09:47:44;24.10;1.00
23671;DHT22;12012;51.998;7.614;2023-07-22T09:50:14;24.10;1.00
23671;DHT22;12012;51.998;7.614;2023-07-22T09:52:48;24.00;1.00
23671;DHT22;12012;51.998;7.614;2023-07-22T09:55:18;23.80;1.00
23671;DHT22;12012;51.998;7.614;2023-07-22T09:57:49;23.50;1.00
23671;DHT22;12012;51.998;7.614;2023-07-22T10:00:16;23.40;1.00
23671;DHT22;12012;51.998;7.614;2023-07-22T10:02:43;23.20;1.00
23671;DHT22;12012;51.998;7.614;2023-07-22T10:05:14;23.20;1.00
23671;DHT22;12012;51.998;7.614;2023-07-22T10:07:47;23.00;1.00
23671;DHT22;12012;51.998;7.614;2023-07-22T10:10:15;22.90;1.00
23671;DHT22;12012;51.998;7.614;2023-07-22T10:12:42;22.90;1.00
23671;DHT22;12012;51.998;7.614;2023-07-22T10:15:12;22.90;1.00
23671;DHT22;12012;51.998;7.614;2023-07-22T10:17:40;22.90;1.00
23671;DHT22;12012;51.998;7.614;2023-07-22T10:20:07;23.00;1.00
23671;DHT22;12012;51.998;7.614;2023-07-22T10:22:37;23.20;1.00
23671;DHT22;12012;51.998;7.614;2023-07-22T10:25:06;23.20;1.00
23671;DHT22;12012;51.998;7.614;2023-07-22T10:27:34;23.20;1.00
23671;DHT22;12012;51.998;7.614;2023-07-22T10:30:00;23.20;1.00
23671;DHT22;12012;51.998;7.614;2023-07-22T10:32:32;23.20;1.00
23671;DHT22;12012;51.998;7.614;2023-07-22T10:34:58;23.30;1.00
23671;DHT22;12012;51.998;7.614;2023-07-22T10:37:32;23.30;1.00
23671;DHT22;12012;51.998;7.614;2023-07-22T10:40:00;23.30;1.00
23671;DHT22;12012;51.998;7.614;2023-07-22T10:42:27;23.40;1.00
23671;DHT22;12012;51.998;7.614;2023-07-22T10:44:53;23.40;1.00
23671;DHT22;12012;51.998;7.614;2023-07-22T10:47:34;23.60;1.00
23671;DHT22;12012;51.998;7.614;2023-07-22T10:50:08;23.70;1.00
23671;DHT22;12012;51.998;7.614;2023-07-22T10:52:41;23.90;1.00
23671;DHT22;12012;51.998;7.614;2023-07-22T10:55:15;24.10;1.00
23671;DHT22;12012;51.998;7.614;2023-07-22T10:57:48;24.40;1.00
23671;DHT22;12012;51.998;7.614;2023-07-22T11:00:24;24.50;1.00
23671;DHT22;12012;51.998;7.614;2023-07-22T11:03:14;24.60;1.00
23671;DHT22;12012;51.998;7.614;2023-07-22T11:05:51;24.80;1.00
23671;DHT22;12012;51.998;7.614;2023-07-22T11:08:35;24.90;1.00
23671;DHT22;12012;51.998;7.614;2023-07-22T11:11:02;25.10;1.00
23671;DHT22;12012;51.998;7.614;2023-07-22T11:13:28;25.20;1.00
23671;DHT22;12012;51.998;7.614;2023-07-22T11:15:58;25.20;1.00
23671;DHT22;12012;51.998;7.614;2023-07-22T11:18:39;25.30;1.00
23671;DHT22;12012;51.998;7.614;2023-07-22T11:21:13;25.30;1.00
23671;DHT22;12012;51.998;7.614;2023-07-22T11:23:39;25.30;1.00
23671;DHT22;12012;51.998;7.614;2023-07-22T11:26:04;25.40;1.00
23671;DHT22;12012;51.998;7.614;2023-07-22T11:28:31;25.50;1.00
23671;DHT22;12012;51.998;7.614;2023-07-22T11:30:56;25.50;1.00
23671;DHT22;12012;51.998;7.614;2023-07-22T11:33:24;25.60;1.00
23671;DHT22;12012;51.998;7.614;2023-07-22T11:35:50;25.60;1.00
23671;DHT22;12012;51.998;7.614;2023-07-22T11:38:15;25.80;1.00
23671;DHT22;12012;51.998;7.614;2023-07-22T11:40:41;25.90;1.00
23671;DHT22;12012;51.998;7.614;2023-07-22T11:43:07;25.60;1.00
23671;DHT22;12012;51.998;7.614;2023-07-22T11:45:33;25.30;1.00
23671;DHT22;12012;51.998;7.614;2023-07-22T11:48:09;25.10;1.00
23671;DHT22;12012;51.998;7.614;2023-07-22T11:50:34;25.00;1.00
23671;DHT22;12012;51.998;7.614;2023-07-22T11:53:00;25.20;1.00
23671;DHT22;12012;51.998;7.614;2023-07-22T11:55:26;25.20;1.00
23671;DHT22;12012;51.998;7.614;2023-07-22T11:57:57;25.20;1.00
23671;DHT22;12012;51.998;7.614;2023-07-22T12:00:23;25.00;1.00
23671;DHT22;12012;51.998;7.614;2023-07-22T12:02:49;24.70;1.00
23671;DHT22;12012;51.998;7.614;2023-07-22T12:05:21;24.30;1.00
23671;DHT22;12012;51.998;7.614;2023-07-22T12:07:47;23.90;1.00
23671;DHT22;12012;51.998;7.614;2023-07-22T12:10:12;23.50;1.00
23671;DHT22;12012;51.998;7.614;2023-07-22T12:12:45;22.90;1.00
23671;DHT22;12012;51.998;7.614;2023-07-22T12:15:16;22.50;1.00
23671;DHT22;12012;51.998;7.614;2023-07-22T12:20:24;22.30;1.00
23671;DHT22;12012;51.998;7.614;2023-07-22T12:22:51;22.60;1.00
23671;DHT22;12012;51.998;7.614;2023-07-22T12:25:17;23.00;1.00
23671;DHT22;12012;51.998;7.614;2023-07-22T12:27:43;23.20;1.00
23671;DHT22;12012;51.998;7.614;2023-07-22T12:30:09;23.50;1.00
23671;DHT22;12012;51.998;7.614;2023-07-22T12:32:35;23.90;1.00
23671;DHT22;12012;51.998;7.614;2023-07-22T12:35:01;24.30;1.00
23671;DHT22;12012;51.998;7.614;2023-07-22T12:37:28;24.50;1.00
23671;DHT22;12012;51.998;7.614;2023-07-22T12:39:54;24.80;1.00
23671;DHT22;12012;51.998;7.614;2023-07-22T12:42:19;25.10;1.00
23671;DHT22;12012;51.998;7.614;2023-07-22T12:44:45;25.40;1.00
23671;DHT22;12012;51.998;7.614;2023-07-22T12:47:11;25.60;1.00
23671;DHT22;12012;51.998;7.614;2023-07-22T12:49:37;25.80;1.00
23671;DHT22;12012;51.998;7.614;2023-07-22T12:52:03;25.90;1.00
23671;DHT22;12012;51.998;7.614;2023-07-22T12:54:30;25.70;1.00
23671;DHT22;12012;51.998;7.614;2023-07-22T12:56:57;25.60;1.00
23671;DHT22;12012;51.998;7.614;2023-07-22T12:59:22;25.50;1.00
23671;DHT22;12012;51.998;7.614;2023-07-22T13:01:48;25.30;1.00
23671;DHT22;12012;51.998;7.614;2023-07-22T13:04:13;25.10;1.00
23671;DHT22;12012;51.998;7.614;2023-07-22T13:06:39;24.80;1.00
23671;DHT22;12012;51.998;7.614;2023-07-22T13:09:05;24.50;1.00
23671;DHT22;12012;51.998;7.614;2023-07-22T13:11:30;24.10;1.00
23671;DHT22;12012;51.998;7.614;2023-07-22T13:13:56;23.90;1.00
23671;DHT22;12012;51.998;7.614;2023-07-22T13:16:21;23.80;1.00
23671;DHT22;12012;51.998;7.614;2023-07-22T13:18:47;23.80;1.00
23671;DHT22;12012;51.998;7.614;2023-07-22T13:21:12;24.00;1.00
23671;DHT22;12012;51.998;7.614;2023-07-22T13:23:38;24.40;1.00
23671;DHT22;12012;51.998;7.614;2023-07-22T13:26:03;25.20;1.00
23671;DHT22;12012;51.998;7.614;2023-07-22T13:28:29;25.90;1.00
23671;DHT22;12012;51.998;7.614;2023-07-22T13:30:54;26.10;1.00
23671;DHT22;12012;51.998;7.614;2023-07-22T13:33:20;26.30;1.00
23671;DHT22;12012;51.998;7.614;2023-07-22T13:35:45;26.60;1.00
23671;DHT22;12012;51.998;7.614;2023-07-22T13:38:11;26.60;1.00
23671;DHT22;12012;51.998;7.614;2023-07-22T13:40:37;26.50;1.00
23671;DHT22;12012;51.998;7.614;2023-07-22T13:43:02;26.50;1.00
23671;DHT22;12012;51.998;7.614;2023-07-22T13:45:28;26.70;1.00
23671;DHT22;12012;51.998;7.614;2023-07-22T13:47:53;26.90;1.00
23671;DHT22;12012;51.998;7.614;2023-07-22T13:50:19;27.10;1.00
23671;DHT22;12012;51.998;7.614;2023-07-22T13:52:45;27.30;1.00
23671;DHT22;12012;51.998;7.614;2023-07-22T13:55:10;27.50;1.00
23671;DHT22;12012;51.998;7.614;2023-07-22T13:57:36;27.60;1.00
23671;DHT22;12012;51.998;7.614;2023-07-22T14:00:02;27.60;1.00
23671;DHT22;12012;51.998;7.614;2023-07-22T14:02:36;28.10;1.00
23671;DHT22;12012;51.998;7.614;2023-07-22T14:05:01;28.60;1.00
23671;DHT22;12012;51.998;7.614;2023-07-22T14:07:27;28.60;1.00
23671;DHT22;12012;51.998;7.614;2023-07-22T14:09:53;28.20;1.00
23671;DHT22;12012;51.998;7.614;2023-07-22T14:12:18;28.10;1.00
23671;DHT22;12012;51.998;7.614;2023-07-22T14:14:44;27.80;1.00
23671;DHT22;12012;51.998;7.614;2023-07-22T14:17:09;27.60;1.00
23671;DHT22;12012;51.998;7.614;2023-07-22T14:19:35;27.50;1.00
23671;DHT22;12012;51.998;7.614;2023-07-22T14:22:00;27.40;1.00
23671;DHT22;12012;51.998;7.614;2023-07-22T14:24:26;27.30;1.00
23671;DHT22;12012;51.998;7.614;2023-07-22T14:26:52;27.50;1.00
23671;DHT22;12012;51.998;7.614;2023-07-22T14:29:17;27.70;1.00
23671;DHT22;12012;51.998;7.614;2023-07-22T14:31:43;27.90;1.00
23671;DHT22;12012;51.998;7.614;2023-07-22T14:34:17;28.10;1.00
23671;DHT22;12012;51.998;7.614;2023-07-22T14:36:43;28.00;1.00
23671;DHT22;12012;51.998;7.614;2023-07-22T14:39:09;28.00;1.00
23671;DHT22;12012;51.998;7.614;2023-07-22T14:41:34;28.10;1.00
23671;DHT22;12012;51.998;7.614;2023-07-22T14:44:00;28.00;1.00
23671;DHT22;12012;51.998;7.614;2023-07-22T14:46:26;27.80;1.00
23671;DHT22;12012;51.998;7.614;2023-07-22T14:48:51;27.50;1.00
23671;DHT22;12012;51.998;7.614;2023-07-22T14:51:17;27.20;1.00
23671;DHT22;12012;51.998;7.614;2023-07-22T14:53:42;26.90;1.00
23671;DHT22;12012;51.998;7.614;2023-07-22T14:56:08;26.70;1.00
23671;DHT22;12012;51.998;7.614;2023-07-22T14:58:34;26.90;1.00
23671;DHT22;12012;51.998;7.614;2023-07-22T15:00:59;27.40;1.00
23671;DHT22;12012;51.998;7.614;2023-07-22T15:03:25;27.80;1.00
23671;DHT22;12012;51.998;7.614;2023-07-22T15:05:51;27.80;1.00
23671;DHT22;12012;51.998;7.614;2023-07-22T15:08:16;27.60;1.00
23671;DHT22;12012;51.998;7.614;2023-07-22T15:10:42;27.30;1.00
23671;DHT22;12012;51.998;7.614;2023-07-22T15:13:08;27.10;1.00
23671;DHT22;12012;51.998;7.614;2023-07-22T15:15:33;26.90;1.00
23671;DHT22;12012;51.998;7.614;2023-07-22T15:17:59;26.60;1.00
23671;DHT22;12012;51.998;7.614;2023-07-22T15:20:24;26.50;1.00
23671;DHT22;12012;51.998;7.614;2023-07-22T15:22:50;26.70;1.00
23671;DHT22;12012;51.998;7.614;2023-07-22T15:25:16;26.60;1.00
23671;DHT22;12012;51.998;7.614;2023-07-22T15:27:41;26.50;1.00
23671;DHT22;12012;51.998;7.614;2023-07-22T15:30:08;26.40;1.00
23671;DHT22;12012;51.998;7.614;2023-07-22T15:32:33;26.20;1.00
23671;DHT22;12012;51.998;7.614;2023-07-22T15:34:59;26.00;1.00
23671;DHT22;12012;51.998;7.614;2023-07-22T15:37:24;25.90;1.00
23671;DHT22;12012;51.998;7.614;2023-07-22T15:39:50;25.80;1.00
23671;DHT22;12012;51.998;7.614;2023-07-22T15:42:16;25.70;1.00
23671;DHT22;12012;51.998;7.614;2023-07-22T15:44:42;25.70;1.00